sensor_id;sensor_type;location;lat;lon;timestamp;P1;durP1;ratioP1;P2;durP2;ratioP2
37349;SDS011;23231;52.358;4.926;2023-02-11T00:02:18;14.65;;;4.32;;
37349;SDS011;23231;52.358;4.926;2023-02-11T00:07:19;16.58;;;4.18;;
37349;SDS011;23231;52.358;4.926;2023-02-11T00:12:19;20.65;;;4.57;;
37349;SDS011;23231;52.358;4.926;2023-02-11T00:17:20;21.63;;;5.13;;
37349;SDS011;23231;52.358;4.926;2023-02-11T00:22:20;19.00;;;4.50;;
37349;SDS011;23231;52.358;4.926;2023-02-11T00:27:21;23.48;;;4.57;;
37349;SDS011;23231;52.358;4.926;2023-02-11T00:32:21;20.42;;;5.03;;
37349;SDS011;23231;52.358;4.926;2023-02-11T00:37:22;19.90;;;5.18;;
37349;SDS011;23231;52.358;4.926;2023-02-11T00:42:22;18.73;;;5.55;;
37349;SDS011;23231;52.358;4.926;2023-02-11T00:47:23;27.50;;;5.63;;
37349;SDS011;23231;52.358;4.926;2023-02-11T00:52:23;29.17;;;5.45;;
37349;SDS011;23231;52.358;4.926;2023-02-11T00:57:23;20.70;;;6.30;;
37349;SDS011;23231;52.358;4.926;2023-02-11T01:02:24;22.70;;;5.63;;
37349;SDS011;23231;52.358;4.926;2023-02-11T01:07:25;18.23;;;6.60;;
37349;SDS011;23231;52.358;4.926;2023-02-11T01:12:26;19.90;;;5.95;;
37349;SDS011;23231;52.358;4.926;2023-02-11T01:17:26;16.00;;;6.40;;
37349;SDS011;23231;52.358;4.926;2023-02-11T01:22:27;19.85;;;6.93;;
37349;SDS011;23231;52.358;4.926;2023-02-11T01:27:27;28.48;;;8.40;;
37349;SDS011;23231;52.358;4.926;2023-02-11T01:32:27;23.60;;;8.90;;
37349;SDS011;23231;52.358;4.926;2023-02-11T01:37:28;29.58;;;9.20;;
37349;SDS011;23231;52.358;4.926;2023-02-11T01:42:28;30.45;;;10.20;;
37349;SDS011;23231;52.358;4.926;2023-02-11T01:47:29;27.73;;;8.93;;
37349;SDS011;23231;52.358;4.926;2023-02-11T01:52:31;30.13;;;9.63;;
37349;SDS011;23231;52.358;4.926;2023-02-11T01:57:34;31.77;;;9.60;;
37349;SDS011;23231;52.358;4.926;2023-02-11T02:13:02;26.50;;;7.78;;
37349;SDS011;23231;52.358;4.926;2023-02-11T02:28:31;30.90;;;7.90;;
37349;SDS011;23231;52.358;4.926;2023-02-11T02:38:53;29.23;;;8.57;;
37349;SDS011;23231;52.358;4.926;2023-02-11T02:43:57;24.37;;;7.93;;
37349;SDS011;23231;52.358;4.926;2023-02-11T02:48:57;26.70;;;9.70;;
37349;SDS011;23231;52.358;4.926;2023-02-11T03:10:57;26.90;;;9.32;;
37349;SDS011;23231;52.358;4.926;2023-02-11T03:16:01;37.65;;;11.32;;
37349;SDS011;23231;52.358;4.926;2023-02-11T03:21:07;30.02;;;10.73;;
37349;SDS011;23231;52.358;4.926;2023-02-11T03:37:26;31.25;;;12.20;;
37349;SDS011;23231;52.358;4.926;2023-02-11T03:42:13;37.72;;;11.43;;
37349;SDS011;23231;52.358;4.926;2023-02-11T03:47:14;33.40;;;11.90;;
37349;SDS011;23231;52.358;4.926;2023-02-11T03:52:19;30.50;;;12.13;;
37349;SDS011;23231;52.358;4.926;2023-02-11T03:57:21;34.38;;;12.68;;
37349;SDS011;23231;52.358;4.926;2023-02-11T04:02:22;36.15;;;12.57;;
37349;SDS011;23231;52.358;4.926;2023-02-11T04:07:25;37.05;;;13.38;;
37349;SDS011;23231;52.358;4.926;2023-02-11T04:12:25;49.20;;;13.70;;
37349;SDS011;23231;52.358;4.926;2023-02-11T04:17:26;42.70;;;13.68;;
37349;SDS011;23231;52.358;4.926;2023-02-11T04:22:26;38.50;;;14.27;;
37349;SDS011;23231;52.358;4.926;2023-02-11T04:27:26;43.47;;;15.75;;
37349;SDS011;23231;52.358;4.926;2023-02-11T04:32:27;41.72;;;15.23;;
37349;SDS011;23231;52.358;4.926;2023-02-11T04:37:27;44.67;;;14.55;;
37349;SDS011;23231;52.358;4.926;2023-02-11T04:42:28;44.63;;;15.63;;
37349;SDS011;23231;52.358;4.926;2023-02-11T04:47:28;37.47;;;15.00;;
37349;SDS011;23231;52.358;4.926;2023-02-11T04:52:28;43.50;;;15.48;;
37349;SDS011;23231;52.358;4.926;2023-02-11T04:57:29;49.88;;;16.88;;
37349;SDS011;23231;52.358;4.926;2023-02-11T05:02:29;43.10;;;15.98;;
37349;SDS011;23231;52.358;4.926;2023-02-11T05:07:30;43.78;;;16.10;;
37349;SDS011;23231;52.358;4.926;2023-02-11T05:12:30;42.10;;;16.52;;
37349;SDS011;23231;52.358;4.926;2023-02-11T05:17:31;49.28;;;16.77;;
37349;SDS011;23231;52.358;4.926;2023-02-11T05:22:31;40.85;;;17.27;;
37349;SDS011;23231;52.358;4.926;2023-02-11T05:27:32;43.95;;;16.95;;
37349;SDS011;23231;52.358;4.926;2023-02-11T05:32:32;39.80;;;16.23;;
37349;SDS011;23231;52.358;4.926;2023-02-11T05:37:32;39.72;;;15.57;;
37349;SDS011;23231;52.358;4.926;2023-02-11T05:42:33;42.88;;;18.02;;
37349;SDS011;23231;52.358;4.926;2023-02-11T05:47:34;38.85;;;16.90;;
37349;SDS011;23231;52.358;4.926;2023-02-11T05:52:34;45.40;;;17.85;;
37349;SDS011;23231;52.358;4.926;2023-02-11T05:57:35;39.88;;;17.15;;
37349;SDS011;23231;52.358;4.926;2023-02-11T06:02:35;41.15;;;17.13;;
37349;SDS011;23231;52.358;4.926;2023-02-11T06:07:35;46.70;;;16.75;;
37349;SDS011;23231;52.358;4.926;2023-02-11T06:12:36;37.08;;;16.30;;
37349;SDS011;23231;52.358;4.926;2023-02-11T06:17:37;41.45;;;17.38;;
37349;SDS011;23231;52.358;4.926;2023-02-11T06:22:37;45.45;;;17.00;;
37349;SDS011;23231;52.358;4.926;2023-02-11T06:27:37;46.45;;;19.00;;
37349;SDS011;23231;52.358;4.926;2023-02-11T06:32:38;37.75;;;16.80;;
37349;SDS011;23231;52.358;4.926;2023-02-11T06:37:39;39.95;;;16.98;;
37349;SDS011;23231;52.358;4.926;2023-02-11T06:42:40;40.17;;;16.60;;
37349;SDS011;23231;52.358;4.926;2023-02-11T06:47:40;38.70;;;16.27;;
37349;SDS011;23231;52.358;4.926;2023-02-11T06:52:41;38.97;;;17.13;;
37349;SDS011;23231;52.358;4.926;2023-02-11T06:57:41;40.10;;;17.05;;
37349;SDS011;23231;52.358;4.926;2023-02-11T07:02:42;37.45;;;15.70;;
37349;SDS011;23231;52.358;4.926;2023-02-11T07:07:42;46.22;;;16.95;;
37349;SDS011;23231;52.358;4.926;2023-02-11T07:12:43;31.88;;;15.43;;
37349;SDS011;23231;52.358;4.926;2023-02-11T07:17:43;34.00;;;15.68;;
37349;SDS011;23231;52.358;4.926;2023-02-11T07:22:44;37.45;;;16.58;;
37349;SDS011;23231;52.358;4.926;2023-02-11T07:27:44;37.22;;;16.27;;
37349;SDS011;23231;52.358;4.926;2023-02-11T07:32:44;33.67;;;15.85;;
37349;SDS011;23231;52.358;4.926;2023-02-11T07:37:45;34.97;;;16.08;;
37349;SDS011;23231;52.358;4.926;2023-02-11T07:42:45;40.20;;;16.83;;
37349;SDS011;23231;52.358;4.926;2023-02-11T07:47:45;35.55;;;14.88;;
37349;SDS011;23231;52.358;4.926;2023-02-11T07:52:46;34.65;;;14.63;;
37349;SDS011;23231;52.358;4.926;2023-02-11T07:57:46;33.00;;;14.63;;
37349;SDS011;23231;52.358;4.926;2023-02-11T08:02:47;32.15;;;13.45;;
37349;SDS011;23231;52.358;4.926;2023-02-11T08:07:49;30.27;;;14.10;;
37349;SDS011;23231;52.358;4.926;2023-02-11T08:12:51;32.08;;;14.30;;
37349;SDS011;23231;52.358;4.926;2023-02-11T08:17:53;31.80;;;13.70;;
37349;SDS011;23231;52.358;4.926;2023-02-11T08:22:53;31.52;;;14.30;;
37349;SDS011;23231;52.358;4.926;2023-02-11T08:27:53;31.92;;;13.63;;
37349;SDS011;23231;52.358;4.926;2023-02-11T08:32:54;29.40;;;13.30;;
37349;SDS011;23231;52.358;4.926;2023-02-11T08:37:55;32.78;;;13.43;;
37349;SDS011;23231;52.358;4.926;2023-02-11T08:42:55;28.75;;;13.82;;
37349;SDS011;23231;52.358;4.926;2023-02-11T08:47:56;30.35;;;13.80;;
37349;SDS011;23231;52.358;4.926;2023-02-11T08:52:56;30.70;;;12.95;;
37349;SDS011;23231;52.358;4.926;2023-02-11T08:57:57;30.33;;;12.70;;
37349;SDS011;23231;52.358;4.926;2023-02-11T09:02:57;26.38;;;12.85;;
37349;SDS011;23231;52.358;4.926;2023-02-11T09:07:58;27.17;;;12.35;;
37349;SDS011;23231;52.358;4.926;2023-02-11T09:12:58;27.33;;;12.82;;
37349;SDS011;23231;52.358;4.926;2023-02-11T09:17:58;27.80;;;11.98;;
37349;SDS011;23231;52.358;4.926;2023-02-11T09:22:59;22.85;;;11.40;;
37349;SDS011;23231;52.358;4.926;2023-02-11T09:27:59;26.73;;;13.10;;
37349;SDS011;23231;52.358;4.926;2023-02-11T09:33:00;27.45;;;12.15;;
37349;SDS011;23231;52.358;4.926;2023-02-11T09:38:00;23.10;;;12.07;;
37349;SDS011;23231;52.358;4.926;2023-02-11T09:43:18;25.67;;;11.88;;
37349;SDS011;23231;52.358;4.926;2023-02-11T09:48:20;21.17;;;10.57;;
37349;SDS011;23231;52.358;4.926;2023-02-11T09:53:25;21.63;;;10.90;;
37349;SDS011;23231;52.358;4.926;2023-02-11T09:58:30;21.95;;;10.32;;
37349;SDS011;23231;52.358;4.926;2023-02-11T10:24:23;17.10;;;9.40;;
37349;SDS011;23231;52.358;4.926;2023-02-11T10:34:33;15.48;;;8.93;;
37349;SDS011;23231;52.358;4.926;2023-02-11T10:39:40;18.95;;;9.48;;
37349;SDS011;23231;52.358;4.926;2023-02-11T10:44:42;19.38;;;8.65;;
37349;SDS011;23231;52.358;4.926;2023-02-11T10:49:56;17.50;;;9.43;;
37349;SDS011;23231;52.358;4.926;2023-02-11T10:55:14;18.88;;;8.88;;
37349;SDS011;23231;52.358;4.926;2023-02-11T11:00:22;20.55;;;8.82;;
37349;SDS011;23231;52.358;4.926;2023-02-11T11:05:36;19.63;;;9.02;;
37349;SDS011;23231;52.358;4.926;2023-02-11T11:10:47;22.05;;;9.43;;
37349;SDS011;23231;52.358;4.926;2023-02-11T11:16:06;19.67;;;9.05;;
37349;SDS011;23231;52.358;4.926;2023-02-11T11:26:22;21.17;;;10.18;;
37349;SDS011;23231;52.358;4.926;2023-02-11T11:31:29;15.20;;;8.38;;
37349;SDS011;23231;52.358;4.926;2023-02-11T11:36:33;17.10;;;8.95;;
37349;SDS011;23231;52.358;4.926;2023-02-11T11:41:35;17.65;;;9.48;;
37349;SDS011;23231;52.358;4.926;2023-02-11T11:46:49;18.02;;;8.75;;
37349;SDS011;23231;52.358;4.926;2023-02-11T11:51:57;18.20;;;9.27;;
37349;SDS011;23231;52.358;4.926;2023-02-11T11:57:18;22.73;;;10.00;;
37349;SDS011;23231;52.358;4.926;2023-02-11T12:56:47;19.92;;;8.13;;
37349;SDS011;23231;52.358;4.926;2023-02-11T13:01:49;15.65;;;7.60;;
37349;SDS011;23231;52.358;4.926;2023-02-11T13:06:54;13.50;;;7.50;;
37349;SDS011;23231;52.358;4.926;2023-02-11T13:11:57;16.00;;;7.75;;
37349;SDS011;23231;52.358;4.926;2023-02-11T13:17:24;16.92;;;7.68;;
37349;SDS011;23231;52.358;4.926;2023-02-11T13:27:42;14.93;;;7.70;;
37349;SDS011;23231;52.358;4.926;2023-02-11T13:37:52;16.20;;;8.43;;
37349;SDS011;23231;52.358;4.926;2023-02-11T13:42:55;15.23;;;7.35;;
37349;SDS011;23231;52.358;4.926;2023-02-11T13:48:03;13.30;;;6.65;;
37349;SDS011;23231;52.358;4.926;2023-02-11T13:53:05;15.05;;;8.23;;
37349;SDS011;23231;52.358;4.926;2023-02-11T14:03:31;16.40;;;6.65;;
37349;SDS011;23231;52.358;4.926;2023-02-11T14:19:31;18.88;;;7.15;;
37349;SDS011;23231;52.358;4.926;2023-02-11T14:45:28;13.70;;;6.53;;
37349;SDS011;23231;52.358;4.926;2023-02-11T14:50:35;19.25;;;7.35;;
37349;SDS011;23231;52.358;4.926;2023-02-11T14:55:42;17.30;;;7.32;;
37349;SDS011;23231;52.358;4.926;2023-02-11T15:00:53;14.70;;;6.88;;
37349;SDS011;23231;52.358;4.926;2023-02-11T15:06:25;12.85;;;6.07;;
37349;SDS011;23231;52.358;4.926;2023-02-11T15:11:37;12.40;;;6.30;;
37349;SDS011;23231;52.358;4.926;2023-02-11T15:16:39;17.65;;;6.57;;
37349;SDS011;23231;52.358;4.926;2023-02-11T15:21:42;16.55;;;5.72;;
37349;SDS011;23231;52.358;4.926;2023-02-11T15:26:44;14.02;;;6.57;;
37349;SDS011;23231;52.358;4.926;2023-02-11T15:31:44;14.27;;;6.20;;
37349;SDS011;23231;52.358;4.926;2023-02-11T15:36:45;15.30;;;6.38;;
37349;SDS011;23231;52.358;4.926;2023-02-11T15:41:45;15.43;;;6.90;;
37349;SDS011;23231;52.358;4.926;2023-02-11T15:46:46;14.50;;;6.35;;
37349;SDS011;23231;52.358;4.926;2023-02-11T15:51:46;14.10;;;6.88;;
37349;SDS011;23231;52.358;4.926;2023-02-11T15:56:48;16.80;;;6.75;;
37349;SDS011;23231;52.358;4.926;2023-02-11T16:01:54;18.67;;;6.85;;
37349;SDS011;23231;52.358;4.926;2023-02-11T16:06:55;14.82;;;7.30;;
37349;SDS011;23231;52.358;4.926;2023-02-11T16:11:56;21.42;;;7.90;;
37349;SDS011;23231;52.358;4.926;2023-02-11T16:17:09;18.13;;;6.93;;
37349;SDS011;23231;52.358;4.926;2023-02-11T16:22:16;14.52;;;7.15;;
37349;SDS011;23231;52.358;4.926;2023-02-11T16:32:23;15.95;;;6.43;;
37349;SDS011;23231;52.358;4.926;2023-02-11T16:37:25;23.83;;;11.02;;
37349;SDS011;23231;52.358;4.926;2023-02-11T16:42:26;16.83;;;7.25;;
37349;SDS011;23231;52.358;4.926;2023-02-11T16:47:26;14.90;;;7.55;;
37349;SDS011;23231;52.358;4.926;2023-02-11T16:52:27;17.15;;;7.82;;
37349;SDS011;23231;52.358;4.926;2023-02-11T16:57:30;16.13;;;7.47;;
37349;SDS011;23231;52.358;4.926;2023-02-11T17:02:34;13.60;;;6.95;;
37349;SDS011;23231;52.358;4.926;2023-02-11T17:07:35;15.65;;;7.63;;
37349;SDS011;23231;52.358;4.926;2023-02-11T17:12:36;14.45;;;7.25;;
37349;SDS011;23231;52.358;4.926;2023-02-11T17:17:36;18.58;;;8.95;;
37349;SDS011;23231;52.358;4.926;2023-02-11T17:22:37;14.63;;;7.97;;
37349;SDS011;23231;52.358;4.926;2023-02-11T17:27:37;19.75;;;8.75;;
37349;SDS011;23231;52.358;4.926;2023-02-11T17:32:38;16.70;;;8.57;;
37349;SDS011;23231;52.358;4.926;2023-02-11T17:37:38;16.52;;;8.75;;
37349;SDS011;23231;52.358;4.926;2023-02-11T17:42:39;17.65;;;8.45;;
37349;SDS011;23231;52.358;4.926;2023-02-11T17:47:40;17.33;;;8.75;;
37349;SDS011;23231;52.358;4.926;2023-02-11T17:52:40;19.05;;;9.57;;
37349;SDS011;23231;52.358;4.926;2023-02-11T17:57:40;18.40;;;9.98;;
37349;SDS011;23231;52.358;4.926;2023-02-11T18:02:41;21.65;;;9.40;;
37349;SDS011;23231;52.358;4.926;2023-02-11T18:07:41;16.65;;;8.57;;
37349;SDS011;23231;52.358;4.926;2023-02-11T18:12:42;18.40;;;8.23;;
37349;SDS011;23231;52.358;4.926;2023-02-11T18:17:42;21.50;;;9.50;;
37349;SDS011;23231;52.358;4.926;2023-02-11T18:22:43;19.15;;;9.55;;
37349;SDS011;23231;52.358;4.926;2023-02-11T18:27:43;20.45;;;8.90;;
37349;SDS011;23231;52.358;4.926;2023-02-11T18:32:44;20.08;;;9.27;;
37349;SDS011;23231;52.358;4.926;2023-02-11T18:37:44;29.42;;;11.25;;
37349;SDS011;23231;52.358;4.926;2023-02-11T18:42:45;22.13;;;10.60;;
37349;SDS011;23231;52.358;4.926;2023-02-11T18:47:45;17.77;;;9.45;;
37349;SDS011;23231;52.358;4.926;2023-02-11T18:52:46;19.52;;;8.70;;
37349;SDS011;23231;52.358;4.926;2023-02-11T18:57:47;18.95;;;9.13;;
37349;SDS011;23231;52.358;4.926;2023-02-11T19:02:47;22.98;;;9.20;;
37349;SDS011;23231;52.358;4.926;2023-02-11T19:07:47;22.35;;;9.27;;
37349;SDS011;23231;52.358;4.926;2023-02-11T19:12:49;19.25;;;10.10;;
37349;SDS011;23231;52.358;4.926;2023-02-11T19:17:52;14.88;;;8.20;;
37349;SDS011;23231;52.358;4.926;2023-02-11T19:22:52;23.00;;;9.40;;
37349;SDS011;23231;52.358;4.926;2023-02-11T19:27:53;23.40;;;11.10;;
37349;SDS011;23231;52.358;4.926;2023-02-11T19:32:53;22.85;;;9.65;;
37349;SDS011;23231;52.358;4.926;2023-02-11T19:37:56;22.83;;;9.15;;
37349;SDS011;23231;52.358;4.926;2023-02-11T19:42:56;23.27;;;10.82;;
37349;SDS011;23231;52.358;4.926;2023-02-11T19:47:56;17.38;;;7.78;;
37349;SDS011;23231;52.358;4.926;2023-02-11T19:52:57;18.83;;;9.05;;
37349;SDS011;23231;52.358;4.926;2023-02-11T19:57:57;17.60;;;8.20;;
37349;SDS011;23231;52.358;4.926;2023-02-11T20:02:58;17.50;;;8.68;;
37349;SDS011;23231;52.358;4.926;2023-02-11T20:07:58;16.02;;;8.45;;
37349;SDS011;23231;52.358;4.926;2023-02-11T20:12:59;25.48;;;9.77;;
37349;SDS011;23231;52.358;4.926;2023-02-11T20:17:59;15.88;;;8.57;;
37349;SDS011;23231;52.358;4.926;2023-02-11T20:23:00;20.27;;;8.90;;
37349;SDS011;23231;52.358;4.926;2023-02-11T20:28:00;20.80;;;8.57;;
37349;SDS011;23231;52.358;4.926;2023-02-11T20:33:00;17.25;;;9.18;;
37349;SDS011;23231;52.358;4.926;2023-02-11T20:38:01;19.25;;;8.05;;
37349;SDS011;23231;52.358;4.926;2023-02-11T20:43:02;20.70;;;9.07;;
37349;SDS011;23231;52.358;4.926;2023-02-11T20:48:02;15.85;;;8.18;;
37349;SDS011;23231;52.358;4.926;2023-02-11T20:53:03;25.50;;;10.02;;
37349;SDS011;23231;52.358;4.926;2023-02-11T20:58:07;17.85;;;9.02;;
37349;SDS011;23231;52.358;4.926;2023-02-11T21:03:08;19.08;;;9.30;;
37349;SDS011;23231;52.358;4.926;2023-02-11T21:08:08;17.45;;;8.90;;
37349;SDS011;23231;52.358;4.926;2023-02-11T21:13:08;15.65;;;7.10;;
37349;SDS011;23231;52.358;4.926;2023-02-11T21:18:09;15.45;;;8.20;;
37349;SDS011;23231;52.358;4.926;2023-02-11T21:23:09;15.32;;;7.90;;
37349;SDS011;23231;52.358;4.926;2023-02-11T21:28:10;13.57;;;7.65;;
37349;SDS011;23231;52.358;4.926;2023-02-11T21:33:10;17.92;;;8.82;;
37349;SDS011;23231;52.358;4.926;2023-02-11T21:38:11;20.13;;;8.80;;
37349;SDS011;23231;52.358;4.926;2023-02-11T21:43:11;19.60;;;8.68;;
37349;SDS011;23231;52.358;4.926;2023-02-11T21:48:12;23.70;;;9.43;;
37349;SDS011;23231;52.358;4.926;2023-02-11T21:53:12;23.58;;;8.88;;
37349;SDS011;23231;52.358;4.926;2023-02-11T21:58:13;15.77;;;8.63;;
37349;SDS011;23231;52.358;4.926;2023-02-11T22:03:13;25.17;;;9.73;;
37349;SDS011;23231;52.358;4.926;2023-02-11T22:08:14;16.65;;;8.68;;
37349;SDS011;23231;52.358;4.926;2023-02-11T22:13:14;20.58;;;10.48;;
37349;SDS011;23231;52.358;4.926;2023-02-11T22:18:14;21.75;;;9.82;;
37349;SDS011;23231;52.358;4.926;2023-02-11T22:23:15;22.30;;;10.95;;
37349;SDS011;23231;52.358;4.926;2023-02-11T22:28:15;23.23;;;10.68;;
37349;SDS011;23231;52.358;4.926;2023-02-11T22:33:15;19.33;;;10.10;;
37349;SDS011;23231;52.358;4.926;2023-02-11T22:38:16;23.92;;;9.88;;
37349;SDS011;23231;52.358;4.926;2023-02-11T22:43:16;25.00;;;10.27;;
37349;SDS011;23231;52.358;4.926;2023-02-11T22:48:17;17.42;;;8.95;;
37349;SDS011;23231;52.358;4.926;2023-02-11T22:53:17;21.58;;;10.70;;
37349;SDS011;23231;52.358;4.926;2023-02-11T22:58:18;16.90;;;8.60;;
37349;SDS011;23231;52.358;4.926;2023-02-11T23:03:18;22.58;;;9.88;;
37349;SDS011;23231;52.358;4.926;2023-02-11T23:08:19;21.83;;;10.15;;
37349;SDS011;23231;52.358;4.926;2023-02-11T23:13:20;22.83;;;9.75;;
37349;SDS011;23231;52.358;4.926;2023-02-11T23:18:20;20.00;;;9.60;;
37349;SDS011;23231;52.358;4.926;2023-02-11T23:23:22;23.05;;;10.80;;
37349;SDS011;23231;52.358;4.926;2023-02-11T23:28:22;22.70;;;10.50;;
37349;SDS011;23231;52.358;4.926;2023-02-11T23:33:22;24.70;;;11.27;;
37349;SDS011;23231;52.358;4.926;2023-02-11T23:38:23;21.42;;;10.52;;
37349;SDS011;23231;52.358;4.926;2023-02-11T23:43:23;24.05;;;10.60;;
37349;SDS011;23231;52.358;4.926;2023-02-11T23:48:24;23.67;;;10.70;;
37349;SDS011;23231;52.358;4.926;2023-02-11T23:53:24;21.75;;;11.18;;
37349;SDS011;23231;52.358;4.926;2023-02-11T23:58:25;21.52;;;10.68;;
